Tampa, Florida
Traffic Map
Current Weather Conditions
Tampa, Florida
Few Clouds
Few Clouds
24°
Feels Like: 24°
Wind Chill: 24° Ceiling: Unl
Heat Index: 24° Visibility: 10mi
Dew Point: 13° Wind: 9mph
Humidity: 50% Direction: 20° (NNE)
Pressure: 30.01in Gusts: 0mph
Raw Report DataKTPA 241553Z 02008KT 350V070 10SM FEW045 24/13 A3001 RMK AO2 SLP160 T02440133
Traffic Incident Summary
Active as of:
Severity:
Category:
InformationThere was an issue retrieving the traffic information for this location. Please try a different location or try again shortly.
Advertisements
Track Severe Weather on mobile